Time;durP1;ratioP1;P1;durP2;ratioP2;P2;SDS_P1;SDS_P2;PMS_P1;PMS_P2;Temp;Humidity;BMP_temperature;BMP_pressure;BME280_temperature;BME280_humidity;BME280_pressure;Samples;Min_cycle;Max_cycle;Signal;HPM_P1;HPM_P2
2022/03/10 00:02:08;;;;;;;50.67;30.58;;;3.20;99.90;;;;;;5038471;28;20025;-80
2022/03/10 00:04:35;;;;;;;54.13;29.75;;;3.30;99.90;;;;;;5061058;28;20064;-79
2022/03/10 00:07:03;;;;;;;50.47;29.70;;;3.30;99.90;;;;;;5043510;28;20035;-79
2022/03/10 00:09:32;;;;;;;54.75;30.45;;;3.30;99.90;;;;;;5043602;28;20029;-80
2022/03/10 00:11:59;;;;;;;53.00;30.10;;;3.30;99.90;;;;;;5058528;28;20033;-80
2022/03/10 00:14:25;;;;;;;65.85;34.88;;;3.30;99.90;;;;;;5045217;28;20514;-80
2022/03/10 00:16:51;;;;;;;;;;;3.20;99.90;;;;;;5053271;28;20029;-79
2022/03/10 00:19:17;;;;;;;54.00;32.38;;;3.10;99.90;;;;;;5053085;28;19897;-81
2022/03/10 00:21:43;;;;;;;;;;;3.20;99.90;;;;;;5046424;28;20033;-79
2022/03/10 00:24:09;;;;;;;60.67;32.28;;;3.30;99.90;;;;;;5048708;28;19905;-81
2022/03/10 00:26:37;;;;;;;50.65;32.45;;;3.30;99.90;;;;;;5043571;28;20029;-78
2022/03/10 00:29:03;;;;;;;44.50;28.58;;;3.40;99.90;;;;;;5031637;28;20040;-79
2022/03/10 00:31:28;;;;;;;47.03;29.05;;;3.50;99.90;;;;;;5030545;28;20040;-79
2022/03/10 00:33:54;;;;;;;46.80;30.45;;;3.60;99.90;;;;;;5033719;28;20412;-79
2022/03/10 00:36:20;;;;;;;;;;;3.50;99.90;;;;;;5035519;28;20104;-79
2022/03/10 00:38:45;;;;;;;45.35;28.05;;;3.50;99.90;;;;;;5034973;28;19913;-80
2022/03/10 00:41:11;;;;;;;55.42;29.02;;;3.50;99.90;;;;;;5034227;28;20128;-79
2022/03/10 00:43:37;;;;;;;53.70;29.10;;;3.40;99.90;;;;;;5037727;28;20037;-79
2022/03/10 00:46:04;;;;;;;47.42;25.10;;;3.40;99.90;;;;;;5034084;28;20056;-80
2022/03/10 00:48:29;;;;;;;49.78;27.63;;;3.40;99.90;;;;;;5034309;28;20063;-79
2022/03/10 00:50:55;;;;;;;48.30;27.67;;;3.40;99.90;;;;;;5034070;28;20037;-79
2022/03/10 00:53:21;;;;;;;;;;;3.40;99.90;;;;;;5030927;28;20518;-79
2022/03/10 00:55:47;;;;;;;42.97;26.20;;;3.40;99.90;;;;;;5029007;28;19912;-79
2022/03/10 00:58:14;;;;;;;;;;;3.40;99.90;;;;;;5037009;28;20120;-78
2022/03/10 01:00:39;;;;;;;49.03;27.02;;;3.40;99.90;;;;;;5033801;28;19959;-79
2022/03/10 01:03:05;;;;;;;;;;;3.30;99.90;;;;;;5035040;28;20033;-78
2022/03/10 01:05:32;;;;;;;39.40;24.38;;;3.40;99.90;;;;;;5036025;28;19995;-79
2022/03/10 01:07:58;;;;;;;40.20;25.52;;;3.30;99.90;;;;;;5050621;28;20482;-79
2022/03/10 01:10:24;;;;;;;42.83;25.30;;;3.30;99.90;;;;;;5033168;28;20036;-78
2022/03/10 01:12:50;;;;;;;33.45;20.42;;;3.30;99.90;;;;;;5034077;28;20109;-79
2022/03/10 01:15:17;;;;;;;;;;;3.20;99.90;;;;;;5035471;28;20038;-78
2022/03/10 01:17:43;;;;;;;;;;;3.30;99.90;;;;;;5034882;28;19966;-79
2022/03/10 01:20:10;;;;;;;16.40;9.18;;;3.40;99.90;;;;;;5034196;28;20011;-78
2022/03/10 01:22:36;;;;;;;16.70;9.27;;;3.40;99.90;;;;;;5034365;28;20044;-79
2022/03/10 01:25:05;;;;;;;;;;;3.30;99.90;;;;;;5035611;28;20036;-79
2022/03/10 01:27:31;;;;;;;10.40;6.25;;;3.40;99.90;;;;;;5033596;28;19915;-79
2022/03/10 01:29:57;;;;;;;9.20;5.45;;;3.40;99.90;;;;;;5032684;28;20085;-79
2022/03/10 01:32:23;;;;;;;;;;;3.40;99.90;;;;;;5033599;28;20253;-78
2022/03/10 01:34:49;;;;;;;10.93;6.00;;;3.50;99.90;;;;;;5033980;28;19916;-79
2022/03/10 01:37:15;;;;;;;13.48;5.60;;;3.40;99.90;;;;;;5032648;28;20387;-80
2022/03/10 01:39:41;;;;;;;11.30;5.57;;;3.20;99.90;;;;;;5050245;28;20040;-80
2022/03/10 01:42:07;;;;;;;;;;;3.10;99.50;;;;;;5032359;28;20030;-79
2022/03/10 01:44:34;;;;;;;8.23;4.13;;;3.20;98.80;;;;;;5032670;28;19964;-80
2022/03/10 01:47:01;;;;;;;10.48;5.05;;;3.00;98.10;;;;;;5035877;28;20025;-79
2022/03/10 01:49:27;;;;;;;9.68;5.38;;;2.90;96.70;;;;;;5034816;28;20022;-80
2022/03/10 01:51:53;;;;;;;7.40;4.35;;;2.90;94.60;;;;;;5035690;28;20025;-79
2022/03/10 01:54:19;;;;;;;;;;;2.90;94.10;;;;;;5053491;28;20046;-79
2022/03/10 01:56:44;;;;;;;8.77;4.72;;;2.80;92.90;;;;;;5037107;28;19916;-79
2022/03/10 01:59:12;;;;;;;9.98;4.55;;;2.80;92.70;;;;;;5034382;28;20048;-79
2022/03/10 02:01:38;;;;;;;6.43;3.35;;;2.80;91.40;;;;;;5032761;28;20037;-79
2022/03/10 02:04:04;;;;;;;;;;;2.80;90.20;;;;;;5038836;28;20375;-79
2022/03/10 02:06:31;;;;;;;8.82;4.28;;;2.80;88.10;;;;;;5038886;28;20339;-78
2022/03/10 02:11:41;;;;;;;8.65;4.03;;;2.70;86.90;;;;;;5041862;28;20823;-79
2022/03/10 02:19:35;;;;;;;9.80;4.13;;;2.60;85.10;;;;;;5043813;28;20072;-80
2022/03/10 02:22:07;;;;;;;;;;;2.50;84.70;;;;;;5045938;28;20437;-80
2022/03/10 02:24:36;;;;;;;8.80;4.07;;;2.50;84.70;;;;;;5044382;28;19905;-79
2022/03/10 02:27:11;;;;;;;10.32;4.43;;;2.40;83.60;;;;;;5041906;28;20052;-79
2022/03/10 02:29:37;;;;;;;8.63;4.03;;;2.40;83.20;;;;;;5040389;28;20028;-79
2022/03/10 02:32:03;;;;;;;8.38;4.43;;;2.40;83.40;;;;;;5040699;28;20037;-79
2022/03/10 02:34:29;;;;;;;;;;;2.30;82.00;;;;;;5040522;28;20049;-79
2022/03/10 02:36:55;;;;;;;7.95;3.65;;;2.40;81.60;;;;;;5042058;28;20377;-80
2022/03/10 02:39:20;;;;;;;7.90;3.95;;;2.30;82.10;;;;;;5043202;28;20038;-79
2022/03/10 02:41:46;;;;;;;6.75;3.30;;;2.20;82.40;;;;;;5042617;28;20100;-79
2022/03/10 02:44:12;;;;;;;14.68;3.50;;;2.20;80.70;;;;;;5056614;28;20437;-80
2022/03/10 02:46:37;;;;;;;;;;;2.10;80.20;;;;;;5041632;28;20108;-79
2022/03/10 02:49:03;;;;;;;8.93;3.15;;;2.10;79.70;;;;;;5036584;28;20377;-79
2022/03/10 02:51:28;;;;;;;5.90;2.58;;;2.20;77.30;;;;;;5054392;28;20049;-80
2022/03/10 02:53:54;;;;;;;;;;;2.10;77.00;;;;;;5039294;28;20068;-80
2022/03/10 02:56:19;;;;;;;7.93;2.55;;;2.10;76.60;;;;;;5051061;28;19905;-79
2022/03/10 02:58:45;;;;;;;5.22;2.70;;;2.10;75.30;;;;;;5062132;28;20188;-78
2022/03/10 03:01:11;;;;;;;5.72;2.13;;;2.10;74.60;;;;;;5032913;28;20033;-79
2022/03/10 03:03:36;;;;;;;3.80;1.75;;;2.10;74.70;;;;;;5034861;28;20025;-80
2022/03/10 03:06:02;;;;;;;;;;;2.00;73.80;;;;;;5035117;28;20578;-78
2022/03/10 03:08:28;;;;;;;7.80;3.05;;;2.00;72.40;;;;;;5051021;28;19893;-81
2022/03/10 03:10:54;;;;;;;5.95;2.97;;;2.00;73.00;;;;;;5052960;28;20037;-79
2022/03/10 03:13:19;;;;;;;4.78;2.05;;;2.00;71.30;;;;;;5041699;28;20124;-76
2022/03/10 03:15:45;;;;;;;;;;;2.10;71.20;;;;;;5044191;28;20497;-80
2022/03/10 03:18:10;;;;;;;6.53;2.45;;;2.00;70.60;;;;;;5045116;28;19912;-80
2022/03/10 03:20:36;;;;;;;3.60;1.67;;;2.10;70.00;;;;;;5043769;28;20037;-79
2022/03/10 03:23:01;;;;;;;;;;;2.10;70.20;;;;;;5057166;28;20037;-79
2022/03/10 03:25:27;;;;;;;4.15;1.98;;;2.10;69.80;;;;;;5050975;28;19912;-80
2022/03/10 03:27:53;;;;;;;;;;;2.10;69.50;;;;;;5073321;28;20077;-80
2022/03/10 03:32:54;;;;;;;6.88;3.05;;;2.00;69.70;;;;;;5248212;22;20054;-80
2022/03/10 03:40:31;;;;;;;6.35;2.65;;;2.00;69.40;;;;;;5426290;23;20090;-80
2022/03/10 03:42:57;;;;;;;;;;;2.00;68.40;;;;;;4997287;28;20034;-80
2022/03/10 03:45:22;;;;;;;7.75;2.55;;;2.10;68.20;;;;;;4997257;28;19909;-81
2022/03/10 03:47:48;;;;;;;5.95;2.60;;;2.00;67.90;;;;;;4996774;28;20023;-80
2022/03/10 03:50:14;;;;;;;;;;;1.90;68.10;;;;;;4996597;28;20070;-81
2022/03/10 03:52:40;;;;;;;6.28;2.88;;;1.90;67.70;;;;;;4994936;28;20383;-80
2022/03/10 03:55:06;;;;;;;;;;;2.00;67.50;;;;;;4995924;28;20027;-80
2022/03/10 03:57:32;;;;;;;4.60;1.77;;;1.90;67.10;;;;;;4995594;28;19917;-80
2022/03/10 03:59:58;;;;;;;;;;;1.90;66.70;;;;;;4991540;28;20050;-79
2022/03/10 04:02:23;;;;;;;5.75;2.17;;;1.80;66.40;;;;;;4991223;28;19965;-80
2022/03/10 04:04:49;;;;;;;;;;;1.70;65.50;;;;;;4990204;28;20030;-80
2022/03/10 04:07:15;;;;;;;5.38;2.50;;;1.70;64.80;;;;;;4990520;28;19917;-80
2022/03/10 04:09:41;;;;;;;4.10;1.50;;;1.60;65.20;;;;;;4990394;28;20011;-80
2022/03/10 04:12:07;;;;;;;;;;;1.60;65.10;;;;;;4991374;28;20027;-80
2022/03/10 04:14:33;;;;;;;5.20;2.00;;;1.60;64.80;;;;;;4990639;28;19966;-80
2022/03/10 04:16:59;;;;;;;;;;;1.60;65.00;;;;;;4992004;28;20031;-80
2022/03/10 04:19:24;;;;;;;5.07;1.80;;;1.40;65.20;;;;;;4990187;28;19921;-81
2022/03/10 04:21:50;;;;;;;6.35;2.47;;;1.50;65.30;;;;;;4990363;28;20027;-80
2022/03/10 04:24:16;;;;;;;;;;;1.40;65.60;;;;;;4986765;28;20118;-79
2022/03/10 04:26:42;;;;;;;7.20;2.35;;;1.50;65.10;;;;;;4973031;28;19918;-78
2022/03/10 04:29:08;;;;;;;5.80;2.50;;;1.50;65.20;;;;;;4975670;28;20331;-78
2022/03/10 04:31:33;;;;;;;4.60;2.08;;;1.50;65.50;;;;;;4974810;28;20404;-79
2022/03/10 04:33:59;;;;;;;;;;;1.40;65.90;;;;;;4973110;28;20062;-78
2022/03/10 04:36:25;;;;;;;5.55;2.75;;;1.40;66.10;;;;;;4976410;28;19956;-79
2022/03/10 04:38:50;;;;;;;;;;;1.40;66.70;;;;;;4973684;28;20026;-78
2022/03/10 04:41:16;;;;;;;8.90;3.13;;;1.30;67.20;;;;;;4975232;28;19918;-78
2022/03/10 04:43:42;;;;;;;6.28;2.80;;;1.40;67.60;;;;;;4976582;28;20086;-79
2022/03/10 04:46:08;;;;;;;6.32;3.15;;;1.40;67.90;;;;;;4977226;28;20035;-78
2022/03/10 04:48:33;;;;;;;;;;;1.30;69.10;;;;;;4975937;28;20027;-80
2022/03/10 04:50:59;;;;;;;7.75;3.20;;;1.30;69.70;;;;;;4976697;28;20035;-79
2022/03/10 04:53:24;;;;;;;;;;;1.40;69.70;;;;;;4979783;28;20030;-79
2022/03/10 04:55:50;;;;;;;9.95;3.80;;;1.30;70.50;;;;;;4990011;28;19929;-80
2022/03/10 04:58:16;;;;;;;;;;;1.30;71.40;;;;;;4998035;28;20034;-80
2022/03/10 05:00:41;;;;;;;8.02;3.53;;;1.20;71.60;;;;;;4997409;28;19925;-81
2022/03/10 05:03:07;;;;;;;;;;;1.10;72.80;;;;;;4998550;28;20019;-81
2022/03/10 05:05:33;;;;;;;6.18;2.88;;;1.00;73.90;;;;;;4995015;28;19970;-81
2022/03/10 05:07:58;;;;;;;9.07;4.47;;;0.90;76.30;;;;;;4986930;28;20022;-80
2022/03/10 05:10:24;;;;;;;;;;;1.00;77.20;;;;;;4983462;28;20050;-79
2022/03/10 05:12:58;;;;;;;7.75;3.53;;;1.00;78.60;;;;;;4973282;28;20024;-79
2022/03/10 05:15:26;;;;;;;7.50;3.78;;;1.10;78.80;;;;;;4974766;28;20027;-79
2022/03/10 05:17:52;;;;;;;8.27;3.70;;;1.10;78.80;;;;;;4978870;28;20034;-80
2022/03/10 05:20:18;;;;;;;;;;;1.10;79.10;;;;;;4981120;28;20039;-80
2022/03/10 05:22:52;;;;;;;9.27;4.90;;;1.10;79.40;;;;;;4978205;28;19910;-79
2022/03/10 05:25:19;;;;;;;8.57;4.20;;;1.10;80.40;;;;;;4977052;28;20023;-78
2022/03/10 05:27:46;;;;;;;10.90;4.75;;;1.00;80.00;;;;;;4978947;28;20037;-79
2022/03/10 05:30:13;;;;;;;8.32;4.28;;;1.10;79.90;;;;;;4981342;28;20027;-79
2022/03/10 05:32:39;;;;;;;7.38;3.65;;;1.10;79.60;;;;;;4990263;28;20022;-79
2022/03/10 05:35:06;;;;;;;;;;;1.10;78.60;;;;;;4983871;28;20039;-79
2022/03/10 05:37:32;;;;;;;12.07;3.72;;;1.10;78.10;;;;;;4978383;28;20011;-79
2022/03/10 05:39:57;;;;;;;9.35;3.85;;;1.20;76.40;;;;;;4975350;28;20536;-78
2022/03/10 05:42:23;;;;;;;;;;;1.20;74.90;;;;;;4979476;28;20059;-78
2022/03/10 05:44:48;;;;;;;9.45;3.60;;;1.20;75.40;;;;;;4978970;28;19906;-77
2022/03/10 05:47:14;;;;;;;;;;;1.30;75.00;;;;;;4973198;28;20125;-78
2022/03/10 05:49:40;;;;;;;7.78;3.22;;;1.20;73.50;;;;;;4984019;28;20409;-79
2022/03/10 05:52:05;;;;;;;;;;;1.20;72.30;;;;;;4977593;28;20500;-78
2022/03/10 05:54:32;;;;;;;8.35;3.83;;;1.30;71.10;;;;;;4977628;28;19957;-78
2022/03/10 05:56:58;;;;;;;8.95;3.85;;;1.40;70.60;;;;;;4978555;28;20110;-78
2022/03/10 05:59:23;;;;;;;;;;;1.70;69.10;;;;;;4995565;28;20030;-81
2022/03/10 06:01:49;;;;;;;7.82;3.50;;;2.00;66.60;;;;;;4996060;28;19906;-80
2022/03/10 06:04:15;;;;;;;10.10;3.15;;;2.30;65.70;;;;;;4995764;28;20034;-80
2022/03/10 06:06:43;;;;;;;8.13;3.53;;;2.40;64.40;;;;;;4989674;28;20066;-79
2022/03/10 06:09:10;;;;;;;7.63;3.70;;;2.70;62.90;;;;;;4981347;28;20491;-79
2022/03/10 06:11:36;;;;;;;9.10;4.22;;;2.70;62.20;;;;;;4982452;28;20038;-80
2022/03/10 06:14:01;;;;;;;;;;;2.90;60.60;;;;;;4984426;28;20026;-79
2022/03/10 06:16:27;;;;;;;7.95;3.72;;;3.00;60.30;;;;;;4981835;28;19985;-79
2022/03/10 06:18:53;;;;;;;5.57;2.67;;;3.10;59.30;;;;;;4986133;28;20058;-80
2022/03/10 06:21:19;;;;;;;;;;;3.30;58.10;;;;;;4984969;28;20133;-79
2022/03/10 06:23:44;;;;;;;7.28;3.28;;;3.60;55.70;;;;;;4981279;28;19914;-79
2022/03/10 06:26:10;;;;;;;;;;;3.80;54.80;;;;;;4983062;28;20078;-79
2022/03/10 06:28:35;;;;;;;10.23;3.72;;;3.70;54.50;;;;;;4981276;28;20355;-79
2022/03/10 06:31:01;;;;;;;8.70;3.65;;;3.70;54.00;;;;;;4982728;28;20069;-79
2022/03/10 06:33:27;;;;;;;7.95;3.90;;;4.10;53.00;;;;;;4983109;28;20062;-79
2022/03/10 06:35:53;;;;;;;;;;;4.50;51.70;;;;;;4982356;28;20069;-79
2022/03/10 06:38:18;;;;;;;6.32;2.70;;;4.60;51.10;;;;;;4985035;28;19906;-80
2022/03/10 06:40:44;;;;;;;7.65;3.60;;;4.90;49.70;;;;;;4986367;28;20058;-80
2022/03/10 06:43:10;;;;;;;9.57;4.95;;;5.30;48.50;;;;;;4987820;28;20035;-80
2022/03/10 06:45:35;;;;;;;;;;;5.70;47.20;;;;;;4986342;28;20035;-79
2022/03/10 06:48:01;;;;;;;11.18;4.20;;;5.70;45.90;;;;;;4988936;28;19906;-80
2022/03/10 06:50:28;;;;;;;;;;;6.40;43.80;;;;;;4986654;28;20043;-80
2022/03/10 06:52:56;;;;;;;8.47;4.10;;;6.40;42.80;;;;;;4986709;28;19906;-79
2022/03/10 06:55:22;;;;;;;6.75;3.00;;;6.50;42.00;;;;;;4986745;28;20503;-79
2022/03/10 06:57:48;;;;;;;10.88;3.85;;;6.50;41.60;;;;;;4986460;28;20027;-80
2022/03/10 07:00:14;;;;;;;11.82;4.28;;;6.70;40.80;;;;;;4987733;28;20092;-80
2022/03/10 07:02:39;;;;;;;8.25;3.92;;;6.70;41.30;;;;;;4991009;28;20034;-80
2022/03/10 07:05:07;;;;;;;7.50;3.10;;;7.00;39.90;;;;;;4988780;28;20030;-80
2022/03/10 07:07:33;;;;;;;8.70;3.70;;;7.20;38.90;;;;;;4988658;28;20054;-79
2022/03/10 07:09:58;;;;;;;8.43;3.25;;;7.30;38.10;;;;;;4987649;28;20026;-80
2022/03/10 07:12:27;;;;;;;6.63;3.80;;;7.10;38.10;;;;;;4987329;28;20127;-80
2022/03/10 07:14:53;;;;;;;6.65;3.20;;;7.10;38.60;;;;;;4988537;28;20022;-80
2022/03/10 07:17:19;;;;;;;6.55;3.15;;;7.10;38.30;;;;;;4989939;28;20038;-80
2022/03/10 07:19:45;;;;;;;;;;;7.20;38.30;;;;;;4988588;28;20050;-80
2022/03/10 07:22:12;;;;;;;5.85;3.55;;;7.20;37.50;;;;;;4986543;28;19912;-80
2022/03/10 07:24:37;;;;;;;7.97;3.45;;;7.40;37.50;;;;;;4987167;28;20117;-80
2022/03/10 07:27:04;;;;;;;9.93;3.97;;;7.40;37.10;;;;;;4987430;28;20019;-79
2022/03/10 07:29:29;;;;;;;;;;;7.50;36.10;;;;;;4986190;28;20035;-79
2022/03/10 07:31:55;;;;;;;5.63;2.72;;;7.40;35.60;;;;;;4987793;28;19920;-80
2022/03/10 07:34:21;;;;;;;8.32;2.95;;;7.40;36.20;;;;;;4987428;28;20030;-79
2022/03/10 07:36:46;;;;;;;7.72;3.28;;;7.70;35.90;;;;;;4988412;28;20062;-80
2022/03/10 07:39:12;;;;;;;7.15;2.92;;;8.10;34.90;;;;;;4986379;28;20103;-80
2022/03/10 07:41:37;;;;;;;8.90;2.58;;;8.20;33.40;;;;;;4985568;28;20046;-79
2022/03/10 07:44:03;;;;;;;5.40;2.78;;;7.90;33.20;;;;;;4985918;28;20034;-79
2022/03/10 07:46:29;;;;;;;7.95;4.03;;;7.90;33.00;;;;;;4983679;28;20400;-80
2022/03/10 07:48:55;;;;;;;4.60;2.45;;;8.00;32.50;;;;;;4985103;28;20395;-80
2022/03/10 07:51:21;;;;;;;8.35;2.05;;;7.70;31.90;;;;;;4985819;28;20019;-80
2022/03/10 07:53:47;;;;;;;9.27;2.33;;;7.80;31.70;;;;;;4987949;28;20030;-79
2022/03/10 07:56:13;;;;;;;7.93;2.85;;;7.80;31.20;;;;;;4985943;28;20039;-80
2022/03/10 07:58:39;;;;;;;3.67;1.88;;;7.70;30.80;;;;;;4984440;28;20062;-80
2022/03/10 08:01:04;;;;;;;9.38;2.22;;;7.40;30.30;;;;;;4983078;28;20055;-80
2022/03/10 08:03:30;;;;;;;8.18;1.95;;;7.20;30.60;;;;;;4983424;28;20046;-80
2022/03/10 08:05:56;;;;;;;4.97;2.15;;;6.80;30.60;;;;;;4984272;28;20038;-79
2022/03/10 08:08:22;;;;;;;;;;;6.80;31.10;;;;;;4986279;28;20034;-80
2022/03/10 08:10:48;;;;;;;5.53;2.15;;;6.90;30.50;;;;;;4988776;28;19933;-80
2022/03/10 08:13:13;;;;;;;4.78;1.67;;;7.10;30.30;;;;;;4993132;28;20030;-81
2022/03/10 08:15:43;;;;;;;5.75;2.05;;;7.30;29.90;;;;;;4992892;28;20031;-80
2022/03/10 08:18:10;;;;;;;4.22;1.67;;;7.50;29.30;;;;;;4983870;28;20023;-80
2022/03/10 08:20:35;;;;;;;10.35;3.40;;;7.20;28.90;;;;;;4983613;28;20031;-79
2022/03/10 08:23:02;;;;;;;5.25;1.98;;;7.20;28.10;;;;;;4981498;28;20123;-79
2022/03/10 08:25:28;;;;;;;5.07;2.53;;;7.10;28.40;;;;;;4984368;28;20031;-78
2022/03/10 08:27:54;;;;;;;5.07;2.10;;;6.90;28.50;;;;;;4980446;28;20019;-79
2022/03/10 08:30:19;;;;;;;15.60;2.78;;;7.20;28.60;;;;;;4984320;28;20408;-80
2022/03/10 08:32:45;;;;;;;;;;;7.70;27.90;;;;;;4983727;28;20483;-79
2022/03/10 08:35:11;;;;;;;5.22;2.97;;;7.40;27.10;;;;;;4982297;28;19906;-78
2022/03/10 08:37:38;;;;;;;3.97;1.98;;;7.30;26.40;;;;;;4981492;28;20030;-79
2022/03/10 08:40:05;;;;;;;7.18;2.55;;;7.00;27.10;;;;;;4980554;28;20231;-79
2022/03/10 08:42:31;;;;;;;7.10;3.63;;;7.00;26.70;;;;;;4982214;28;20102;-79
2022/03/10 08:44:56;;;;;;;4.10;1.65;;;7.10;27.50;;;;;;4984409;28;20042;-80
2022/03/10 08:47:22;;;;;;;;;;;7.50;26.90;;;;;;4983707;28;20484;-78
2022/03/10 08:49:48;;;;;;;6.78;1.92;;;7.60;26.80;;;;;;4976988;28;19906;-78
2022/03/10 08:52:13;;;;;;;5.22;1.92;;;7.50;26.60;;;;;;4975190;28;20065;-77
2022/03/10 08:54:39;;;;;;;7.30;2.80;;;7.30;26.40;;;;;;4973772;28;20460;-78
2022/03/10 08:57:05;;;;;;;5.00;2.40;;;7.20;27.20;;;;;;4980358;28;20031;-79
2022/03/10 08:59:30;;;;;;;;;;;7.20;27.40;;;;;;4976679;28;20042;-78
2022/03/10 09:01:57;;;;;;;4.07;1.63;;;7.10;26.10;;;;;;4975104;28;20193;-80
2022/03/10 09:04:23;;;;;;;5.50;2.22;;;7.10;25.30;;;;;;4975313;28;20500;-78
2022/03/10 09:06:48;;;;;;;5.93;2.17;;;7.30;26.00;;;;;;4977158;28;20118;-78
2022/03/10 09:09:14;;;;;;;8.02;3.88;;;7.40;26.40;;;;;;4975918;28;20043;-79
2022/03/10 09:11:42;;;;;;;84.57;29.73;;;7.60;26.10;;;;;;4977010;28;20081;-78
2022/03/10 09:14:07;;;;;;;8.88;3.60;;;7.80;26.90;;;;;;4979213;28;20403;-79
2022/03/10 09:16:33;;;;;;;;;;;8.00;27.40;;;;;;4979070;28;20030;-77
2022/03/10 09:19:00;;;;;;;5.90;2.65;;;7.90;28.30;;;;;;4982697;28;19906;-82
2022/03/10 09:21:26;;;;;;;6.15;3.00;;;8.00;28.30;;;;;;4988890;28;20042;-78
2022/03/10 09:23:52;;;;;;;8.55;3.25;;;7.80;28.30;;;;;;4990330;28;20007;-81
2022/03/10 09:26:18;;;;;;;5.13;2.47;;;7.70;28.80;;;;;;4978234;28;20030;-78
2022/03/10 09:28:44;;;;;;;3.70;1.88;;;7.60;28.30;;;;;;4979383;28;20498;-78
2022/03/10 09:31:12;;;;;;;;;;;7.50;29.00;;;;;;4989625;28;20041;-80
2022/03/10 09:33:39;;;;;;;6.22;2.58;;;7.70;29.20;;;;;;4990183;28;19973;-78
2022/03/10 09:36:05;;;;;;;7.43;3.42;;;7.90;28.70;;;;;;4990791;28;20019;-79
2022/03/10 09:38:31;;;;;;;4.40;2.17;;;8.10;29.10;;;;;;4987771;28;20077;-79
2022/03/10 09:40:56;;;;;;;;;;;8.20;29.20;;;;;;4992899;28;20038;-80
2022/03/10 09:43:26;;;;;;;7.28;3.00;;;8.40;29.10;;;;;;4994017;28;19890;-79
2022/03/10 09:45:52;;;;;;;5.97;2.95;;;8.60;28.60;;;;;;4991201;28;20035;-80
2022/03/10 09:48:18;;;;;;;6.68;3.15;;;8.60;27.70;;;;;;4989294;28;20019;-80
2022/03/10 09:50:46;;;;;;;8.98;2.90;;;8.60;27.90;;;;;;4987056;28;20031;-79
2022/03/10 09:53:13;;;;;;;13.00;3.60;;;8.70;28.40;;;;;;4988414;28;20447;-79
2022/03/10 09:55:38;;;;;;;8.73;3.15;;;8.80;28.00;;;;;;4993128;28;20127;-79
2022/03/10 09:58:05;;;;;;;4.80;2.58;;;8.90;28.10;;;;;;4992377;28;20023;-79
2022/03/10 10:00:31;;;;;;;8.07;3.35;;;8.90;27.40;;;;;;4988799;28;20039;-78
2022/03/10 10:02:57;;;;;;;12.23;3.08;;;8.60;27.80;;;;;;4992036;28;20087;-80
2022/03/10 10:05:34;;;;;;;6.43;3.15;;;8.60;27.70;;;;;;4991226;28;20042;-79
2022/03/10 10:08:13;;;;;;;5.38;2.90;;;8.70;28.90;;;;;;4993948;28;20003;-80
2022/03/10 10:10:49;;;;;;;5.35;3.20;;;9.00;28.60;;;;;;4993102;28;20026;-79
2022/03/10 10:13:28;;;;;;;7.82;3.65;;;9.20;28.20;;;;;;4990832;28;20027;-79
2022/03/10 10:16:08;;;;;;;10.30;4.43;;;9.10;28.20;;;;;;4988743;28;20521;-80
2022/03/10 10:18:35;;;;;;;6.25;2.80;;;9.20;28.40;;;;;;4989954;28;20030;-80
2022/03/10 10:21:02;;;;;;;9.07;3.50;;;9.40;27.90;;;;;;4988111;28;20039;-78
2022/03/10 10:23:29;;;;;;;6.97;4.05;;;8.60;29.10;;;;;;4978675;28;20057;-79
2022/03/10 10:25:56;;;;;;;6.22;3.33;;;8.50;29.10;;;;;;4979469;28;20155;-79
2022/03/10 10:28:27;;;;;;;8.60;3.45;;;8.40;29.60;;;;;;4981659;28;20033;-79
2022/03/10 10:30:57;;;;;;;10.75;3.25;;;8.60;29.90;;;;;;4983606;28;20476;-79
2022/03/10 10:33:24;;;;;;;11.38;5.63;;;8.70;29.50;;;;;;4983595;28;20078;-78
2022/03/10 10:35:51;;;;;;;6.97;3.97;;;9.00;29.70;;;;;;4988580;28;20018;-78
2022/03/10 10:38:30;;;;;;;7.10;3.72;;;9.10;29.30;;;;;;4991719;28;20023;-80
2022/03/10 10:41:20;;;;;;;8.50;4.97;;;8.80;30.10;;;;;;4991422;28;20037;-79
2022/03/10 10:43:49;;;;;;;6.28;2.90;;;8.00;30.50;;;;;;4992663;28;20030;-79
2022/03/10 10:46:25;;;;;;;10.93;4.38;;;7.20;31.00;;;;;;4988921;28;20034;-79
2022/03/10 10:48:51;;;;;;;7.78;4.22;;;6.50;33.10;;;;;;4980442;28;20027;-76
2022/03/10 10:51:46;;;;;;;;;;;6.30;32.00;;;;;;4987205;28;20031;-80
2022/03/10 10:54:23;;;;;;;7.60;3.05;;;6.10;33.50;;;;;;4991372;28;19926;-81
2022/03/10 10:56:51;;;;;;;10.77;5.00;;;5.90;33.40;;;;;;4983430;28;20066;-80
2022/03/10 10:59:30;;;;;;;10.57;5.07;;;5.80;34.80;;;;;;4992823;28;20045;-79
2022/03/10 11:02:12;;;;;;;74.15;22.80;;;5.80;34.50;;;;;;4997270;28;20114;-80
2022/03/10 11:04:40;;;;;;;22.48;7.57;;;5.80;33.50;;;;;;4969297;28;20057;-80
2022/03/10 11:07:09;;;;;;;13.73;6.43;;;5.60;34.00;;;;;;4977228;28;20041;-79
2022/03/10 11:09:36;;;;;;;8.48;3.90;;;5.50;34.90;;;;;;4974983;28;20023;-79
2022/03/10 11:12:02;;;;;;;6.63;3.42;;;5.40;35.90;;;;;;4975158;28;20133;-80
2022/03/10 11:14:27;;;;;;;10.00;4.30;;;5.40;36.20;;;;;;4975131;28;20146;-79
2022/03/10 11:16:55;;;;;;;9.48;4.32;;;5.50;35.90;;;;;;4974741;28;20101;-78
2022/03/10 11:19:25;;;;;;;7.05;3.00;;;5.50;35.20;;;;;;4977875;28;20038;-81
2022/03/10 11:22:10;;;;;;;8.07;3.50;;;5.70;35.70;;;;;;4981609;28;20051;-79
2022/03/10 11:25:00;;;;;;;9.13;4.40;;;5.80;35.20;;;;;;4978883;28;20760;-79
2022/03/10 11:27:37;;;;;;;9.23;4.93;;;6.00;35.30;;;;;;4980843;28;20027;-80
2022/03/10 11:30:05;;;;;;;9.55;5.50;;;6.00;34.60;;;;;;4982295;28;20098;-80
2022/03/10 11:32:31;;;;;;;9.90;4.43;;;6.00;35.20;;;;;;4986541;28;20031;-79
2022/03/10 11:34:58;;;;;;;;;;;5.90;34.10;;;;;;4981640;28;20026;-80
2022/03/10 11:37:49;;;;;;;6.18;3.13;;;5.70;34.10;;;;;;4985669;28;19934;-80
2022/03/10 11:40:17;;;;;;;8.23;3.97;;;5.80;34.20;;;;;;4981926;28;20051;-80
2022/03/10 11:42:43;;;;;;;12.05;5.53;;;5.60;33.20;;;;;;4988034;28;20034;-80
2022/03/10 11:45:15;;;;;;;6.28;3.20;;;5.70;34.30;;;;;;4988707;28;20384;-80
2022/03/10 11:47:41;;;;;;;7.22;4.30;;;5.80;34.30;;;;;;4991908;28;20035;-81
2022/03/10 11:50:22;;;;;;;9.18;4.28;;;5.90;34.10;;;;;;4987054;28;20380;-80
2022/03/10 11:53:03;;;;;;;9.00;3.67;;;5.70;33.60;;;;;;4986774;28;20033;-80
2022/03/10 11:55:46;;;;;;;10.48;4.32;;;5.70;34.20;;;;;;4986050;28;20035;-79
2022/03/10 11:58:14;;;;;;;9.73;4.30;;;5.70;34.20;;;;;;4986414;28;20034;-80
2022/03/10 12:00:51;;;;;;;10.57;4.75;;;5.70;34.20;;;;;;4984277;28;20059;-81
2022/03/10 12:03:37;;;;;;;7.20;3.83;;;5.60;34.10;;;;;;4985974;28;20030;-80
2022/03/10 12:06:07;;;;;;;10.55;4.85;;;5.60;34.10;;;;;;4976331;28;20048;-80
2022/03/10 12:08:35;;;;;;;8.35;4.03;;;5.60;34.90;;;;;;4980095;28;20035;-81
2022/03/10 12:11:06;;;;;;;7.53;3.85;;;5.60;34.80;;;;;;4985665;28;20006;-80
2022/03/10 12:13:41;;;;;;;9.10;4.30;;;5.60;33.90;;;;;;4990675;28;20011;-81
2022/03/10 12:16:08;;;;;;;5.90;3.08;;;5.50;33.90;;;;;;4984892;28;20126;-80
2022/03/10 12:18:42;;;;;;;6.63;3.35;;;5.50;34.80;;;;;;4991128;28;20031;-81
2022/03/10 12:21:22;;;;;;;9.98;4.68;;;5.40;34.10;;;;;;4992933;28;20058;-80
2022/03/10 12:23:58;;;;;;;9.35;4.22;;;5.40;34.90;;;;;;4992879;28;20494;-81
2022/03/10 12:26:24;;;;;;;11.50;5.68;;;5.40;35.00;;;;;;4990131;28;20034;-81
2022/03/10 12:28:50;;;;;;;8.50;3.58;;;5.50;35.10;;;;;;4992889;28;20054;-82
2022/03/10 12:31:19;;;;;;;;;;;5.70;34.70;;;;;;4994047;28;20748;-80
2022/03/10 12:33:56;;;;;;;7.88;3.55;;;5.70;34.00;;;;;;4989633;28;19914;-80
2022/03/10 12:36:28;;;;;;;;;;;5.60;34.30;;;;;;4988999;28;20038;-80
2022/03/10 12:38:54;;;;;;;13.63;4.43;;;5.50;34.10;;;;;;4994025;28;19973;-81
2022/03/10 12:41:25;;;;;;;7.57;3.70;;;5.40;34.10;;;;;;4991872;28;20130;-80
2022/03/10 12:43:54;;;;;;;11.18;4.20;;;5.40;34.40;;;;;;4985192;28;20098;-80
2022/03/10 12:46:25;;;;;;;6.85;2.95;;;5.50;34.70;;;;;;4985505;28;20107;-79
2022/03/10 12:49:03;;;;;;;7.63;3.45;;;5.60;34.40;;;;;;4996699;28;20010;-82
2022/03/10 12:51:35;;;;;;;8.40;3.28;;;5.50;34.30;;;;;;4998522;28;20090;-80
2022/03/10 12:54:02;;;;;;;16.88;5.95;;;5.50;34.10;;;;;;4993805;28;20011;-82
2022/03/10 12:56:28;;;;;;;7.70;3.22;;;5.40;33.80;;;;;;4995696;28;20046;-82
2022/03/10 12:58:55;;;;;;;7.93;2.92;;;5.40;34.00;;;;;;4995223;28;20042;-81
2022/03/10 13:01:25;;;;;;;8.18;3.67;;;5.50;34.70;;;;;;4997223;28;20042;-81
2022/03/10 13:03:54;;;;;;;9.10;3.97;;;5.60;33.60;;;;;;4996913;28;20038;-82
2022/03/10 13:06:26;;;;;;;21.35;9.20;;;5.50;32.90;;;;;;4992264;28;20599;-80
2022/03/10 13:08:55;;;;;;;6.78;2.63;;;5.20;33.80;;;;;;4989840;28;20030;-79
2022/03/10 13:11:31;;;;;;;6.75;3.78;;;5.10;33.70;;;;;;4988323;28;20054;-80
2022/03/10 13:14:10;;;;;;;9.35;3.08;;;5.30;33.80;;;;;;4991604;28;20034;-79
2022/03/10 13:16:40;;;;;;;6.43;2.92;;;5.40;33.50;;;;;;4992968;28;20026;-81
2022/03/10 13:19:16;;;;;;;5.65;2.70;;;5.40;32.90;;;;;;4993523;28;20031;-81
2022/03/10 13:22:00;;;;;;;6.50;2.80;;;5.30;32.60;;;;;;4994125;28;20034;-80
2022/03/10 13:24:48;;;;;;;11.48;3.10;;;5.20;33.20;;;;;;4995147;28;20038;-80
2022/03/10 13:27:16;;;;;;;9.43;3.58;;;5.30;33.20;;;;;;4993232;28;20035;-79
2022/03/10 13:29:47;;;;;;;9.00;3.25;;;5.20;32.90;;;;;;4993265;28;20030;-80